createdAt,value
2022-08-18T00:01:14.809Z,19.75
2022-08-18T00:04:35.957Z,19.75
2022-08-18T00:07:29.095Z,19.78
2022-08-18T00:10:37.082Z,19.79
2022-08-18T00:13:44.459Z,19.70
2022-08-18T00:16:52.236Z,19.53
2022-08-18T00:20:00.418Z,19.46
2022-08-18T00:23:08.104Z,19.42
2022-08-18T00:26:16.171Z,19.48
2022-08-18T00:29:24.297Z,19.48
2022-08-18T00:32:31.735Z,19.39
2022-08-18T00:35:40.098Z,19.36
2022-08-18T00:38:48.481Z,19.35
2022-08-18T00:41:56.057Z,19.29
2022-08-18T00:45:04.496Z,19.31
2022-08-18T00:48:05.463Z,19.36
2022-08-18T00:51:13.607Z,19.40
2022-08-18T00:54:21.775Z,19.39
2022-08-18T00:57:29.215Z,19.33
2022-08-18T01:00:37.657Z,19.32
2022-08-18T01:03:45.301Z,19.33
2022-08-18T01:06:53.101Z,19.35
2022-08-18T01:10:01.329Z,19.36
2022-08-18T01:13:08.975Z,19.40
2022-08-18T01:16:16.451Z,19.40
2022-08-18T01:19:24.258Z,19.36
2022-08-18T01:22:32.483Z,19.36
2022-08-18T01:25:40.174Z,19.38
2022-08-18T01:28:47.823Z,19.35
2022-08-18T01:31:56.746Z,19.24
2022-08-18T01:35:04.189Z,19.21
2022-08-18T01:38:12.344Z,19.20
2022-08-18T01:41:27.427Z,19.23
2022-08-18T01:44:25.222Z,19.28
2022-08-18T01:47:48.001Z,19.32
2022-08-18T01:50:38.751Z,19.39
2022-08-18T01:53:46.605Z,19.39
2022-08-18T01:56:54.774Z,19.35
2022-08-18T02:00:02.606Z,19.25
2022-08-18T02:03:10.481Z,19.20
2022-08-18T02:06:18.388Z,19.18
2022-08-18T02:09:24.545Z,19.21
2022-08-18T02:12:32.651Z,19.17
2022-08-18T02:15:41.925Z,19.08
2022-08-18T02:18:50.803Z,19.06
2022-08-18T02:21:58.282Z,19.10
2022-08-18T02:25:06.883Z,19.06
2022-08-18T02:28:14.675Z,18.92
2022-08-18T02:31:22.394Z,18.77
2022-08-18T02:34:30.588Z,18.61
2022-08-18T02:37:38.357Z,18.52
2022-08-18T02:40:38.999Z,18.49
2022-08-18T02:43:47.329Z,18.55
2022-08-18T02:46:54.770Z,18.59
2022-08-18T02:50:03.118Z,18.50
2022-08-18T02:53:11.332Z,18.43
2022-08-18T02:56:18.770Z,18.46
2022-08-18T02:59:24.357Z,18.44
2022-08-18T03:02:32.424Z,18.33
2022-08-18T03:05:39.846Z,18.28
2022-08-18T03:08:48.107Z,18.36
2022-08-18T03:11:56.259Z,18.43
2022-08-18T03:15:03.788Z,18.40
2022-08-18T03:18:11.960Z,18.42
2022-08-18T03:21:19.728Z,18.36
2022-08-18T03:24:27.701Z,18.42
2022-08-18T03:27:35.933Z,18.49
2022-08-18T03:30:43.355Z,18.54
2022-08-18T03:33:51.474Z,18.59
2022-08-18T03:36:59.658Z,18.65
2022-08-18T03:40:07.172Z,18.68
2022-08-18T03:43:25.831Z,18.68
2022-08-18T03:46:20.508Z,18.54
2022-08-18T03:49:28.748Z,18.43
2022-08-18T03:52:36.539Z,18.43
2022-08-18T03:55:38.825Z,18.43
2022-08-18T03:58:47.108Z,18.47
2022-08-18T04:01:54.568Z,18.52
2022-08-18T04:05:02.414Z,18.61
2022-08-18T04:08:02.461Z,18.68
2022-08-18T04:11:10.166Z,18.76
2022-08-18T04:14:18.346Z,18.80
2022-08-18T04:17:26.247Z,18.82
2022-08-18T04:20:34.212Z,18.86
2022-08-18T04:23:43.804Z,18.86
2022-08-18T04:26:52.023Z,18.86
2022-08-18T04:30:00.180Z,18.80
2022-08-18T04:33:08.272Z,18.83
2022-08-18T04:36:19.187Z,18.86
2022-08-18T04:39:17.565Z,18.90
2022-08-18T04:42:25.266Z,18.90
2022-08-18T04:45:32.923Z,18.91
2022-08-18T04:48:41.067Z,18.97
2022-08-18T04:52:32.064Z,18.92
2022-08-18T04:54:54.089Z,18.79
2022-08-18T04:58:02.131Z,18.65
2022-08-18T05:01:09.533Z,18.61
2022-08-18T05:04:17.878Z,18.59
2022-08-18T05:07:26.361Z,18.70
2022-08-18T05:10:35.055Z,18.80
2022-08-18T05:13:43.216Z,18.79
2022-08-18T05:16:50.866Z,18.90
2022-08-18T05:19:59.247Z,18.98
2022-08-18T05:23:09.006Z,19.01
2022-08-18T05:26:16.649Z,19.01
2022-08-18T05:29:24.430Z,18.99
2022-08-18T05:32:47.332Z,19.02
2022-08-18T05:35:37.942Z,19.17
2022-08-18T05:38:45.610Z,19.33
2022-08-18T05:41:53.295Z,19.43
2022-08-18T05:45:01.486Z,19.53
2022-08-18T05:48:09.558Z,19.70
2022-08-18T05:51:17.249Z,19.88
2022-08-18T05:54:25.185Z,20.02
2022-08-18T05:57:32.512Z,20.13
2022-08-18T06:00:40.901Z,20.23
2022-08-18T06:03:49.126Z,20.43
2022-08-18T06:06:56.662Z,20.66
2022-08-18T06:10:04.954Z,20.87
2022-08-18T06:13:13.377Z,21.01
2022-08-18T06:16:21.306Z,21.14
2022-08-18T06:19:29.781Z,21.24
2022-08-18T06:22:37.637Z,21.29
2022-08-18T06:25:43.246Z,21.34
2022-08-18T06:28:51.421Z,21.36
2022-08-18T06:31:58.780Z,21.36
2022-08-18T06:35:06.952Z,21.34
2022-08-18T06:38:14.754Z,21.32
2022-08-18T06:41:41.588Z,21.44
2022-08-18T06:44:28.119Z,21.54
2022-08-18T06:47:36.056Z,21.66
2022-08-18T06:50:44.218Z,21.79
2022-08-18T06:53:52.529Z,21.83
2022-08-18T06:56:59.943Z,21.92
2022-08-18T07:00:08.101Z,22.02
2022-08-18T07:03:15.903Z,22.09
2022-08-18T07:06:24.031Z,22.16
2022-08-18T07:09:31.798Z,22.29
2022-08-18T07:12:39.526Z,22.35
2022-08-18T07:15:47.729Z,22.43
2022-08-18T07:18:55.139Z,22.57
2022-08-18T07:22:03.369Z,22.68
2022-08-18T07:25:11.501Z,22.60
2022-08-18T07:28:18.779Z,22.35
2022-08-18T07:31:26.685Z,22.35
2022-08-18T07:34:35.493Z,22.47
2022-08-18T07:37:42.881Z,22.43
2022-08-18T07:40:51.036Z,22.44
2022-08-18T07:43:58.367Z,22.62
2022-08-18T07:47:06.389Z,22.82
2022-08-18T07:50:27.120Z,23.02
2022-08-18T07:53:19.638Z,23.20
2022-08-18T07:56:29.828Z,23.49
2022-08-18T07:59:37.763Z,23.62
2022-08-18T08:02:45.657Z,23.82
2022-08-18T08:05:50.794Z,23.85
2022-08-18T08:08:58.398Z,23.85
2022-08-18T08:12:06.101Z,23.85
2022-08-18T08:15:14.334Z,23.95
2022-08-18T08:18:22.152Z,23.97
2022-08-18T08:21:29.952Z,23.95
2022-08-18T08:24:37.919Z,24.02
2022-08-18T08:27:46.157Z,24.12
2022-08-18T08:30:53.879Z,24.07
2022-08-18T08:34:05.705Z,24.38
2022-08-18T08:37:03.982Z,24.64
2022-08-18T08:40:11.320Z,24.75
2022-08-18T08:43:19.670Z,24.61
2022-08-18T08:46:27.543Z,24.79
2022-08-18T08:49:35.350Z,24.91
2022-08-18T08:52:43.335Z,25.13
2022-08-18T08:55:51.101Z,25.17
2022-08-18T08:58:58.792Z,25.13
2022-08-18T09:02:06.472Z,25.35
2022-08-18T09:05:14.559Z,25.53
2022-08-18T09:08:22.140Z,25.59
2022-08-18T09:11:30.017Z,25.37
2022-08-18T09:14:39.275Z,25.10
2022-08-18T09:17:47.156Z,24.91
2022-08-18T09:20:55.097Z,24.71
2022-08-18T09:24:02.738Z,24.52
2022-08-18T09:27:10.078Z,24.14
2022-08-18T09:30:18.229Z,24.01
2022-08-18T09:33:28.684Z,24.41
2022-08-18T09:36:36.062Z,24.79
2022-08-18T09:39:44.304Z,24.83
2022-08-18T09:42:52.133Z,24.91
2022-08-18T09:45:59.967Z,25.10
2022-08-18T09:49:08.567Z,25.52
2022-08-18T09:52:16.469Z,25.43
2022-08-18T09:55:24.840Z,25.39
2022-08-18T09:58:32.820Z,25.39
2022-08-18T10:01:42.035Z,25.39
2022-08-18T10:04:50.324Z,25.39
2022-08-18T10:07:58.614Z,25.32
2022-08-18T10:11:09.583Z,25.25
2022-08-18T10:14:07.728Z,25.09
2022-08-18T10:17:23.321Z,25.02
2022-08-18T10:20:26.684Z,25.12
2022-08-18T10:23:24.459Z,25.17
2022-08-18T10:26:34.145Z,25.05
2022-08-18T10:29:42.286Z,25.17
2022-08-18T10:35:56.167Z,25.24
2022-08-18T10:39:04.305Z,25.20
2022-08-18T10:42:14.754Z,25.37
2022-08-18T10:45:25.020Z,25.39
2022-08-18T10:48:32.982Z,25.71
2022-08-18T10:51:59.519Z,26.18
2022-08-18T10:54:51.793Z,26.35
2022-08-18T10:57:51.383Z,26.61
2022-08-18T11:01:00.148Z,26.76
2022-08-18T11:04:14.098Z,26.69
2022-08-18T11:07:12.372Z,26.35
2022-08-18T11:10:29.691Z,26.36
2022-08-18T11:13:25.655Z,26.44
2022-08-18T11:16:34.165Z,26.57
2022-08-18T11:19:42.742Z,26.57
2022-08-18T11:22:50.993Z,26.62
2022-08-18T11:25:59.348Z,26.28
2022-08-18T11:29:08.058Z,26.15
2022-08-18T11:32:17.957Z,26.18
2022-08-18T11:35:27.527Z,26.28
2022-08-18T11:38:36.334Z,26.25
2022-08-18T11:41:48.697Z,26.25
2022-08-18T11:44:41.887Z,26.15
2022-08-18T11:47:50.426Z,26.36
2022-08-18T11:50:58.057Z,26.68
2022-08-18T11:54:06.609Z,26.69
2022-08-18T11:57:14.761Z,26.81
2022-08-18T12:00:23.993Z,27.04
2022-08-18T12:03:21.570Z,27.02
2022-08-18T12:06:30.138Z,27.01
2022-08-18T12:10:16.425Z,27.24
2022-08-18T12:12:43.554Z,27.06
2022-08-18T12:15:52.228Z,26.94
2022-08-18T12:19:00.000Z,27.11
2022-08-18T12:22:00.542Z,27.42
2022-08-18T12:25:12.077Z,27.73
2022-08-18T12:28:22.324Z,27.89
2022-08-18T12:31:20.664Z,27.76
2022-08-18T12:34:26.575Z,27.73
2022-08-18T12:37:58.164Z,27.92
2022-08-18T12:40:41.452Z,27.98
2022-08-18T12:43:59.162Z,28.06
2022-08-18T12:46:54.882Z,28.28
2022-08-18T12:50:03.434Z,27.92
2022-08-18T12:53:12.374Z,27.79
2022-08-18T12:56:20.776Z,27.57
2022-08-18T12:59:33.077Z,27.23
2022-08-18T13:02:33.960Z,27.09
2022-08-18T13:05:42.517Z,27.13
2022-08-18T13:08:51.032Z,27.21
2022-08-18T13:12:00.147Z,27.26
2022-08-18T13:15:08.325Z,27.05
2022-08-18T13:18:18.854Z,27.11
2022-08-18T13:21:24.310Z,27.26
2022-08-18T13:24:32.479Z,27.33
2022-08-18T13:30:46.341Z,27.13
2022-08-18T13:33:56.560Z,27.09
2022-08-18T13:36:57.243Z,27.06
2022-08-18T13:40:05.119Z,27.09
2022-08-18T13:43:15.525Z,26.95
2022-08-18T13:46:31.266Z,26.83
2022-08-18T13:49:30.119Z,26.79
2022-08-18T13:52:44.377Z,26.69
2022-08-18T13:55:41.796Z,26.62
2022-08-18T13:58:53.433Z,26.49
2022-08-18T14:01:52.953Z,26.44
2022-08-18T14:05:00.955Z,26.39
2022-08-18T14:08:09.524Z,26.28
2022-08-18T14:11:19.262Z,26.11
2022-08-18T14:14:27.800Z,25.84
2022-08-18T14:17:36.046Z,25.44
2022-08-18T14:20:48.377Z,25.12
2022-08-18T14:23:52.889Z,25.06
2022-08-18T14:26:50.705Z,25.00
2022-08-18T14:29:59.518Z,24.97
2022-08-18T14:33:11.607Z,24.97
2022-08-18T14:36:09.993Z,24.97
2022-08-18T14:39:18.878Z,25.01
2022-08-18T14:42:41.319Z,25.09
2022-08-18T14:45:35.152Z,25.17
2022-08-18T14:48:32.898Z,25.20
2022-08-18T14:51:41.202Z,25.15
2022-08-18T14:54:51.401Z,25.19
2022-08-18T14:57:51.494Z,25.27
2022-08-18T15:01:00.287Z,25.30
2022-08-18T15:04:18.684Z,25.37
2022-08-18T15:07:13.926Z,25.46
2022-08-18T15:10:23.548Z,25.46
2022-08-18T15:13:26.326Z,25.42
2022-08-18T15:16:35.007Z,25.25
2022-08-18T15:20:00.310Z,25.24
2022-08-18T15:22:42.933Z,25.22
2022-08-18T15:25:51.346Z,25.05
2022-08-18T15:29:00.640Z,24.97
2022-08-18T15:32:10.608Z,24.94
2022-08-18T15:35:19.499Z,24.88
2022-08-18T15:38:27.604Z,24.92
2022-08-18T15:41:43.984Z,24.95
2022-08-18T15:44:42.114Z,25.00
2022-08-18T15:47:42.122Z,25.07
2022-08-18T15:50:51.034Z,25.05
2022-08-18T15:53:58.924Z,25.06
2022-08-18T15:57:07.527Z,25.13
2022-08-18T16:00:15.889Z,25.31
2022-08-18T16:03:23.711Z,25.50
2022-08-18T16:06:32.461Z,25.49
2022-08-18T16:09:40.555Z,25.44
2022-08-18T16:12:48.725Z,25.47
2022-08-18T16:15:57.271Z,25.47
2022-08-18T16:19:04.839Z,25.39
2022-08-18T16:22:13.541Z,25.31
2022-08-18T16:25:22.113Z,25.42
2022-08-18T16:28:34.735Z,25.49
2022-08-18T16:31:33.028Z,25.34
2022-08-18T16:34:41.270Z,25.10
2022-08-18T16:37:49.150Z,24.90
2022-08-18T16:40:57.050Z,24.79
2022-08-18T16:44:04.952Z,24.83
2022-08-18T16:47:13.989Z,24.97
2022-08-18T16:50:22.235Z,25.06
2022-08-18T16:53:40.165Z,25.01
2022-08-18T16:56:35.220Z,25.05
2022-08-18T16:59:42.862Z,24.94
2022-08-18T17:02:51.346Z,24.82
2022-08-18T17:05:58.875Z,24.76
2022-08-18T17:09:09.967Z,24.67
2022-08-18T17:12:08.047Z,24.69
2022-08-18T17:15:15.579Z,24.76
2022-08-18T17:18:23.570Z,24.76
2022-08-18T17:24:42.641Z,24.37
2022-08-18T17:27:45.450Z,24.19
2022-08-18T17:30:47.196Z,24.05
2022-08-18T17:33:55.954Z,24.04
2022-08-18T17:37:04.561Z,23.98
2022-08-18T17:40:12.499Z,23.82
2022-08-18T17:43:20.701Z,23.70
2022-08-18T17:46:29.612Z,23.65
2022-08-18T17:49:39.628Z,23.61
2022-08-18T17:52:47.158Z,23.40
2022-08-18T17:55:50.393Z,23.22
2022-08-18T17:58:58.097Z,22.97
2022-08-18T18:02:06.047Z,22.82
2022-08-18T18:05:11.550Z,22.69
2022-08-18T18:08:19.400Z,22.64
2022-08-18T18:11:27.606Z,22.49
2022-08-18T18:14:35.973Z,22.38
2022-08-18T18:17:43.875Z,22.47
2022-08-18T18:20:51.546Z,22.46
2022-08-18T18:23:59.694Z,22.47
2022-08-18T18:27:07.053Z,22.44
2022-08-18T18:30:19.210Z,22.38
2022-08-18T18:33:23.271Z,22.38
2022-08-18T18:36:30.755Z,22.41
2022-08-18T18:39:38.993Z,22.41
2022-08-18T18:42:46.725Z,22.39
2022-08-18T18:45:54.344Z,22.31
2022-08-18T18:49:02.478Z,22.31
2022-08-18T18:52:10.198Z,22.32
2022-08-18T18:55:18.168Z,22.37
2022-08-18T18:58:27.348Z,22.29
2022-08-18T19:01:35.883Z,22.27
2022-08-18T19:04:43.495Z,22.23
2022-08-18T19:07:51.476Z,22.19
2022-08-18T19:11:00.135Z,22.12
2022-08-18T19:14:07.810Z,22.12
2022-08-18T19:17:16.208Z,22.16
2022-08-18T19:20:24.498Z,22.10
2022-08-18T19:23:44.593Z,22.10
2022-08-18T19:26:37.751Z,22.09
2022-08-18T19:29:45.603Z,22.09
2022-08-18T19:32:53.918Z,22.04
2022-08-18T19:36:03.385Z,22.01
2022-08-18T19:39:12.019Z,22.01
2022-08-18T19:42:19.726Z,22.07
2022-08-18T19:45:27.788Z,22.07
2022-08-18T19:48:35.681Z,22.06
2022-08-18T19:51:45.605Z,21.98
2022-08-18T19:54:53.823Z,22.01
2022-08-18T19:58:02.471Z,21.95
2022-08-18T20:01:10.477Z,21.94
2022-08-18T20:04:15.928Z,21.94
2022-08-18T20:07:24.264Z,21.97
2022-08-18T20:10:31.842Z,22.01
2022-08-18T20:13:43.265Z,22.02
2022-08-18T20:16:43.604Z,22.02
2022-08-18T20:19:41.760Z,22.09
2022-08-18T20:22:54.000Z,22.13
2022-08-18T20:25:53.393Z,22.12
2022-08-18T20:29:01.908Z,22.04
2022-08-18T20:32:10.125Z,22.01
2022-08-18T20:35:17.846Z,22.02
2022-08-18T20:38:26.336Z,22.01
2022-08-18T20:41:38.041Z,21.99
2022-08-18T20:44:36.257Z,21.99
2022-08-18T20:47:44.426Z,21.99
2022-08-18T20:50:52.560Z,21.94
2022-08-18T20:54:01.361Z,21.95
2022-08-18T20:57:10.735Z,21.91
2022-08-18T21:00:22.649Z,21.91
2022-08-18T21:03:24.717Z,21.88
2022-08-18T21:06:24.379Z,21.94
2022-08-18T21:09:33.533Z,21.95
2022-08-18T21:12:51.826Z,22.04
2022-08-18T21:15:49.276Z,22.09
2022-08-18T21:18:59.622Z,22.12
2022-08-18T21:22:08.892Z,22.12
2022-08-18T21:25:18.472Z,22.09
2022-08-18T21:28:29.260Z,22.12
2022-08-18T21:31:44.461Z,22.07
2022-08-18T21:34:41.823Z,22.06
2022-08-18T21:37:44.828Z,21.99
2022-08-18T21:40:54.369Z,21.95
2022-08-18T21:43:54.850Z,21.94
2022-08-18T21:47:03.719Z,21.94
2022-08-18T21:50:12.301Z,21.92
2022-08-18T21:53:21.332Z,21.91
2022-08-18T21:56:31.502Z,21.88
2022-08-18T21:59:40.124Z,21.85
2022-08-18T22:02:50.134Z,21.82
2022-08-18T22:06:00.014Z,21.83
2022-08-18T22:08:59.249Z,21.81
2022-08-18T22:12:08.499Z,21.81
2022-08-18T22:15:18.045Z,21.78
2022-08-18T22:18:26.750Z,21.75
2022-08-18T22:21:37.221Z,21.74
2022-08-18T22:24:46.676Z,21.74
2022-08-18T22:27:56.804Z,21.72
2022-08-18T22:31:06.315Z,21.66
2022-08-18T22:34:15.275Z,21.61
2022-08-18T22:37:16.698Z,21.61
2022-08-18T22:40:17.621Z,21.56
2022-08-18T22:43:21.153Z,21.50
2022-08-18T22:46:30.141Z,21.50
2022-08-18T22:49:38.993Z,21.50
2022-08-18T22:52:48.612Z,21.48
2022-08-18T22:55:58.226Z,21.45
2022-08-18T22:59:15.712Z,21.36
2022-08-18T23:02:15.197Z,21.34
2022-08-18T23:05:20.876Z,21.34
2022-08-18T23:08:35.734Z,21.30
2022-08-18T23:11:36.469Z,21.29
2022-08-18T23:14:46.506Z,21.26
2022-08-18T23:17:55.952Z,21.27
2022-08-18T23:21:04.952Z,21.29
2022-08-18T23:24:14.256Z,21.30
2022-08-18T23:27:22.933Z,21.29
2022-08-18T23:30:33.707Z,21.26
2022-08-18T23:33:43.980Z,21.26
2022-08-18T23:36:52.270Z,21.23
2022-08-18T23:40:01.125Z,21.24
2022-08-18T23:43:09.420Z,21.21
2022-08-18T23:46:16.768Z,21.23
2022-08-18T23:49:24.710Z,21.23
2022-08-18T23:52:32.503Z,21.26
2022-08-18T23:55:40.502Z,21.26
2022-08-18T23:58:53.997Z,21.29
